createdAt,value
2023-01-23T00:29:33.428Z,-4552.24
2023-01-23T00:32:00.575Z,-1.00
2023-01-23T00:34:30.599Z,-1.00
2023-01-23T00:36:57.732Z,-1.00
2023-01-23T00:39:25.096Z,-1.00
2023-01-23T00:41:54.017Z,-1.00
2023-01-23T00:44:22.504Z,-1.00
2023-01-23T00:46:50.373Z,-1.00
2023-01-23T00:49:18.221Z,-1.00
2023-01-23T00:51:46.097Z,-1.00
2023-01-23T00:54:13.054Z,-1.00
2023-01-23T00:56:39.994Z,-1.00
2023-01-23T00:59:11.798Z,-1.00
2023-01-23T01:01:38.962Z,-1.00
2023-01-23T01:04:06.478Z,-1.00
2023-01-23T01:06:33.514Z,-1.00
2023-01-23T01:09:00.478Z,-1.00
2023-01-23T01:11:27.376Z,-1.00
2023-01-23T01:13:54.303Z,-1.00
2023-01-23T01:16:21.284Z,-1.00
2023-01-23T01:18:48.215Z,-1.00
2023-01-23T01:21:15.162Z,-1.00
2023-01-23T01:23:42.158Z,-1.00
2023-01-23T01:26:09.196Z,-1.00
2023-01-23T01:28:37.050Z,-1.00
2023-01-23T01:31:12.975Z,-1.00
2023-01-23T01:33:40.220Z,-1.00
2023-01-23T01:36:15.423Z,-1.00
2023-01-23T01:38:42.591Z,-1.00
2023-01-23T01:41:10.052Z,-1.00
2023-01-23T01:43:37.073Z,-1.00
2023-01-23T01:46:13.445Z,-1.00
2023-01-23T01:48:48.228Z,-1.00
2023-01-23T01:51:50.698Z,-1.00
2023-01-23T01:54:40.606Z,-1.00
2023-01-23T01:57:13.599Z,-1.00
2023-01-23T02:00:10.418Z,-1.00
2023-01-23T02:02:51.340Z,-1.00
2023-01-23T02:05:23.876Z,-1.00
2023-01-23T02:07:57.609Z,-1.00
2023-01-23T02:10:24.686Z,-1.00
2023-01-23T02:12:52.069Z,-1.00
2023-01-23T02:15:20.340Z,-1.00
2023-01-23T02:17:48.493Z,-1.00
2023-01-23T02:20:24.787Z,-1.00
2023-01-23T02:22:59.529Z,-1.00
2023-01-23T02:25:44.811Z,-1.00
2023-01-23T02:28:15.913Z,-1.00
2023-01-23T02:30:43.709Z,-1.00
2023-01-23T02:33:30.913Z,-1.00
2023-01-23T02:35:59.232Z,-1.00
2023-01-23T02:38:31.599Z,-1.00
2023-01-23T02:41:01.057Z,-1.00
2023-01-23T02:43:34.763Z,-1.00
2023-01-23T02:46:03.621Z,-1.00
2023-01-23T02:48:30.675Z,-1.00
2023-01-23T02:50:58.944Z,-1.00
2023-01-23T02:53:27.061Z,-1.00
2023-01-23T02:55:54.198Z,-1.00
2023-01-23T02:58:40.967Z,-1.00
2023-01-23T10:31:44.519Z,-18255.85
2023-01-23T10:34:19.953Z,-1.00
2023-01-23T10:37:05.635Z,-1.00
2023-01-23T10:40:02.876Z,-1.00
2023-01-23T10:42:29.783Z,-1.00
2023-01-23T10:44:56.738Z,-1.00
2023-01-23T10:47:33.137Z,-1.00
2023-01-23T10:50:01.415Z,-1.00
2023-01-23T10:52:29.525Z,-1.00
2023-01-23T10:54:56.426Z,-1.00
2023-01-23T10:57:31.265Z,-1.00
2023-01-23T11:00:04.801Z,-1.00
2023-01-23T11:02:33.763Z,-1.00
2023-01-23T11:05:01.136Z,-1.00
2023-01-23T15:54:53.615Z,-22788.47
2023-01-23T15:57:21.622Z,-22798.21
2023-01-23T15:59:48.940Z,-22804.33
2023-01-23T16:02:34.431Z,-22809.90
2023-01-23T16:05:02.929Z,-13688.81
2023-01-23T16:07:34.980Z,-1.00
2023-01-23T16:10:17.804Z,-1.00
2023-01-23T16:12:48.237Z,-1.00
2023-01-23T19:23:57.957Z,-22786.86
2023-01-23T19:26:35.114Z,-22793.53
2023-01-23T19:29:19.538Z,-22797.49
2023-01-23T19:32:02.927Z,-22802.31
